createdAt,value
2023-09-03T00:00:42.443Z,18.04
2023-09-03T00:01:39.325Z,18.13
2023-09-03T00:02:36.106Z,18.06
2023-09-03T00:03:32.944Z,17.79
2023-09-03T00:04:29.730Z,17.78
2023-09-03T00:05:26.389Z,17.72
2023-09-03T00:06:23.121Z,17.68
2023-09-03T00:07:19.795Z,17.67
2023-09-03T00:08:16.614Z,17.54
2023-09-03T00:09:13.295Z,17.47
2023-09-03T00:10:10.097Z,17.44
2023-09-03T00:11:06.688Z,17.45
2023-09-03T00:12:04.551Z,17.40
2023-09-03T00:13:01.144Z,17.38
2023-09-03T00:13:58.174Z,17.28
2023-09-03T00:14:55.854Z,17.18
2023-09-03T00:15:52.514Z,17.27
2023-09-03T00:16:49.343Z,17.15
2023-09-03T00:17:46.564Z,17.28
2023-09-03T00:18:43.299Z,17.22
2023-09-03T00:19:40.125Z,17.24
2023-09-03T00:20:36.877Z,17.22
2023-09-03T00:21:33.553Z,17.20
2023-09-03T00:22:30.356Z,17.14
2023-09-03T00:23:27.167Z,17.34
2023-09-03T00:24:23.976Z,17.35
2023-09-03T00:25:20.649Z,17.28
2023-09-03T00:26:19.372Z,17.31
2023-09-03T00:27:16.128Z,17.05
2023-09-03T00:28:12.881Z,17.04
2023-09-03T00:29:09.666Z,17.10
2023-09-03T00:30:06.882Z,17.17
2023-09-03T00:31:11.395Z,17.29
2023-09-03T00:32:08.087Z,17.41
2023-09-03T00:33:05.094Z,17.41
2023-09-03T00:34:01.830Z,17.10
2023-09-03T00:34:59.881Z,16.95
2023-09-03T00:35:56.580Z,17.32
2023-09-03T00:36:53.318Z,17.36
2023-09-03T00:37:49.943Z,17.41
2023-09-03T00:38:50.738Z,17.51
2023-09-03T00:39:47.413Z,17.42
2023-09-03T00:40:44.071Z,17.62
2023-09-03T00:41:40.658Z,17.79
2023-09-03T00:42:37.330Z,17.83
2023-09-03T00:43:34.665Z,17.95
2023-09-03T00:44:31.379Z,17.99
2023-09-03T00:45:28.019Z,17.92
2023-09-03T00:46:25.131Z,17.98
2023-09-03T00:47:22.202Z,18.06
2023-09-03T00:48:21.788Z,17.90
2023-09-03T00:49:22.882Z,18.09
2023-09-03T00:50:19.546Z,18.09
2023-09-03T00:51:18.303Z,18.04
2023-09-03T00:52:19.749Z,18.08
2023-09-03T00:53:17.931Z,18.14
2023-09-03T00:54:14.791Z,18.07
2023-09-03T00:55:11.451Z,18.11
2023-09-03T00:56:09.662Z,18.08
2023-09-03T00:57:06.377Z,18.22
2023-09-03T00:58:03.492Z,18.06
2023-09-03T00:59:03.567Z,17.99
2023-09-03T01:00:01.120Z,17.90
2023-09-03T01:00:57.845Z,17.87
2023-09-03T01:01:54.945Z,17.61
2023-09-03T01:02:54.280Z,17.93
2023-09-03T01:03:51.073Z,17.71
2023-09-03T01:04:47.820Z,17.62
2023-09-03T01:05:44.479Z,17.69
2023-09-03T01:06:41.298Z,17.94
2023-09-03T01:07:38.594Z,17.71
2023-09-03T01:08:37.032Z,17.53
2023-09-03T01:09:33.848Z,17.68
2023-09-03T01:10:49.719Z,17.65
2023-09-03T01:12:03.679Z,17.64
2023-09-03T01:13:40.808Z,17.62
2023-09-03T01:14:41.258Z,17.61
2023-09-03T01:15:43.803Z,17.57
2023-09-03T01:17:13.057Z,17.75
2023-09-03T01:18:17.735Z,17.65
2023-09-03T01:19:37.724Z,17.60
2023-09-03T01:20:43.265Z,17.56
2023-09-03T01:21:58.677Z,17.45
2023-09-03T01:23:04.437Z,17.39
2023-09-03T01:24:42.697Z,17.34
2023-09-03T01:26:03.766Z,17.45
2023-09-03T01:27:29.638Z,17.41
2023-09-03T01:28:39.584Z,17.44
2023-09-03T01:29:37.706Z,17.56
2023-09-03T01:30:35.294Z,17.75
2023-09-03T01:31:32.449Z,17.76
2023-09-03T01:32:29.302Z,17.68
2023-09-03T01:33:31.868Z,17.74
2023-09-03T01:34:28.875Z,17.50
2023-09-03T01:35:26.009Z,17.08
2023-09-03T01:36:23.556Z,17.05
2023-09-03T01:37:20.430Z,17.01
2023-09-03T01:38:17.220Z,16.96
2023-09-03T01:39:14.030Z,16.86
2023-09-03T01:40:11.676Z,16.88
2023-09-03T01:41:08.943Z,16.93
2023-09-03T01:42:05.732Z,16.91
2023-09-03T01:43:02.477Z,16.92
2023-09-03T01:43:59.360Z,16.81
2023-09-03T01:44:56.065Z,16.74
2023-09-03T01:45:55.366Z,16.70
2023-09-03T01:46:57.704Z,16.70
2023-09-03T01:48:40.719Z,16.60
2023-09-03T01:49:51.471Z,16.53
2023-09-03T01:51:12.198Z,16.33
2023-09-03T01:52:20.796Z,16.21
2023-09-03T01:53:30.323Z,16.19
2023-09-03T01:54:31.181Z,16.12
2023-09-03T01:55:31.556Z,16.15
2023-09-03T01:56:30.867Z,16.18
2023-09-03T01:57:33.653Z,16.26
2023-09-03T01:58:35.678Z,16.21
2023-09-03T01:59:45.214Z,16.38
2023-09-03T02:00:42.782Z,16.67
2023-09-03T02:01:39.767Z,16.66
2023-09-03T02:02:39.071Z,16.44
2023-09-03T02:03:37.462Z,16.82
2023-09-03T02:04:34.573Z,16.35
2023-09-03T02:05:31.401Z,16.40
2023-09-03T02:06:28.644Z,16.72
2023-09-03T02:07:25.975Z,16.46
2023-09-03T02:08:23.154Z,16.39
2023-09-03T02:09:20.273Z,16.61
2023-09-03T02:10:17.748Z,16.33
2023-09-03T02:11:14.456Z,16.67
2023-09-03T02:12:11.205Z,16.54
2023-09-03T02:13:07.936Z,16.44
2023-09-03T02:14:04.641Z,16.39
2023-09-03T02:15:01.283Z,16.51
2023-09-03T02:15:59.952Z,16.54
2023-09-03T02:16:56.632Z,16.47
2023-09-03T02:17:54.915Z,16.55
2023-09-03T02:18:51.665Z,16.57
2023-09-03T02:19:53.183Z,16.52
2023-09-03T02:20:49.870Z,16.50
2023-09-03T02:21:46.693Z,16.53
2023-09-03T02:22:43.294Z,16.68
2023-09-03T02:23:39.938Z,16.60
2023-09-03T02:24:36.578Z,16.80
2023-09-03T02:25:33.324Z,16.79
2023-09-03T02:26:30.207Z,16.91
2023-09-03T02:27:26.869Z,16.69
2023-09-03T02:28:23.581Z,16.78
2023-09-03T02:29:20.307Z,16.71
2023-09-03T02:30:17.817Z,16.76
2023-09-03T02:31:14.801Z,16.78
2023-09-03T02:32:11.588Z,16.67
2023-09-03T02:33:08.331Z,16.77
2023-09-03T02:34:06.543Z,16.62
2023-09-03T02:35:03.502Z,16.72
2023-09-03T02:36:00.223Z,16.86
2023-09-03T02:36:57.139Z,16.85
2023-09-03T02:37:53.913Z,16.97
2023-09-03T02:38:59.880Z,16.91
2023-09-03T02:39:56.505Z,17.04
2023-09-03T02:40:53.334Z,16.80
2023-09-03T02:41:50.136Z,16.86
2023-09-03T02:42:46.743Z,16.83
2023-09-03T02:43:43.379Z,16.98
2023-09-03T02:44:40.115Z,17.07
2023-09-03T02:45:36.812Z,16.87
2023-09-03T02:46:33.622Z,16.79
2023-09-03T02:47:30.410Z,16.90
2023-09-03T02:48:27.098Z,17.08
2023-09-03T02:49:23.762Z,17.27
2023-09-03T02:50:20.516Z,17.04
2023-09-03T02:51:17.417Z,17.26
2023-09-03T02:52:14.189Z,17.46
2023-09-03T02:53:11.648Z,17.39
2023-09-03T02:54:08.616Z,17.64
2023-09-03T02:55:05.590Z,17.48
2023-09-03T02:56:02.280Z,16.85
2023-09-03T02:56:58.944Z,16.72
2023-09-03T02:57:55.569Z,16.50
2023-09-03T02:58:52.344Z,16.47
2023-09-03T02:59:49.634Z,16.43
2023-09-03T03:00:46.315Z,16.36
2023-09-03T03:01:43.715Z,16.38
2023-09-03T03:02:40.591Z,16.23
2023-09-03T03:03:37.589Z,16.16
2023-09-03T03:04:34.242Z,16.23
2023-09-03T03:05:30.867Z,16.25
2023-09-03T03:06:27.541Z,16.23
2023-09-03T03:07:24.276Z,16.26
2023-09-03T03:08:21.108Z,16.18
2023-09-03T03:09:17.919Z,15.96
2023-09-03T03:10:15.708Z,15.99
2023-09-03T03:11:17.455Z,16.01
2023-09-03T03:12:14.143Z,15.94
2023-09-03T03:13:11.903Z,15.84
2023-09-03T03:14:08.541Z,15.87
2023-09-03T03:15:05.647Z,15.96
2023-09-03T03:16:09.675Z,15.96
2023-09-03T03:17:07.445Z,15.94
2023-09-03T03:18:04.458Z,16.02
2023-09-03T03:19:03.172Z,16.07
2023-09-03T03:19:59.840Z,15.94
2023-09-03T03:21:19.924Z,15.94
2023-09-03T03:22:16.640Z,15.81
2023-09-03T03:23:13.360Z,15.79
2023-09-03T03:24:10.534Z,15.73
2023-09-03T03:25:07.901Z,15.80
2023-09-03T03:26:06.222Z,15.85
2023-09-03T03:27:03.061Z,15.87
2023-09-03T03:27:59.765Z,15.90
2023-09-03T03:28:56.406Z,15.91
2023-09-03T03:29:53.634Z,15.98
2023-09-03T03:30:50.272Z,15.94
2023-09-03T03:31:47.585Z,16.16
2023-09-03T03:32:44.611Z,16.14
2023-09-03T03:33:42.525Z,16.05
2023-09-03T03:34:42.645Z,15.96
2023-09-03T03:35:39.399Z,15.84
2023-09-03T03:36:36.274Z,15.80
2023-09-03T03:37:33.039Z,15.83
2023-09-03T03:38:29.818Z,15.75
2023-09-03T03:39:26.716Z,15.61
2023-09-03T03:40:23.391Z,15.60
2023-09-03T03:41:21.261Z,15.62
2023-09-03T03:42:18.084Z,15.61
2023-09-03T03:43:14.868Z,15.65
2023-09-03T03:44:11.537Z,15.79
2023-09-03T03:45:08.506Z,15.64
2023-09-03T03:46:10.235Z,15.72
2023-09-03T03:47:06.959Z,15.65
2023-09-03T03:48:04.097Z,15.61
2023-09-03T03:49:01.100Z,15.57
2023-09-03T03:49:57.806Z,15.60
2023-09-03T03:50:58.115Z,15.71
2023-09-03T03:51:54.853Z,15.63
2023-09-03T03:52:51.530Z,15.51
2023-09-03T03:53:48.274Z,15.43
2023-09-03T03:54:44.963Z,15.45
2023-09-03T03:55:41.632Z,15.47
2023-09-03T03:56:38.303Z,15.40
2023-09-03T03:57:35.259Z,15.34
2023-09-03T03:58:34.429Z,15.32
2023-09-03T03:59:31.610Z,15.33
2023-09-03T04:00:28.934Z,15.39
2023-09-03T04:01:25.771Z,15.43
2023-09-03T04:02:23.001Z,15.44
2023-09-03T04:03:19.770Z,15.52
2023-09-03T04:04:16.699Z,15.57
2023-09-03T04:05:13.519Z,15.41
2023-09-03T04:06:10.612Z,15.23
2023-09-03T04:07:07.287Z,15.24
2023-09-03T04:08:04.322Z,15.26
2023-09-03T04:09:01.159Z,15.15
2023-09-03T04:09:57.895Z,15.12
2023-09-03T04:10:58.168Z,15.15
2023-09-03T04:11:54.837Z,15.03
2023-09-03T04:12:51.852Z,14.99
2023-09-03T04:13:48.636Z,15.14
2023-09-03T04:14:46.311Z,15.03
2023-09-03T04:15:42.971Z,15.15
2023-09-03T04:16:39.730Z,15.20
2023-09-03T04:17:36.674Z,15.22
2023-09-03T04:18:34.285Z,15.28
2023-09-03T04:19:30.937Z,15.28
2023-09-03T04:20:27.603Z,15.27
2023-09-03T04:21:24.339Z,15.32
2023-09-03T04:22:21.019Z,15.38
2023-09-03T04:23:17.627Z,15.42
2023-09-03T04:24:14.366Z,15.47
2023-09-03T04:25:10.978Z,15.52
2023-09-03T04:26:10.496Z,15.47
2023-09-03T04:27:07.294Z,15.55
2023-09-03T04:28:04.218Z,15.53
2023-09-03T04:29:00.977Z,15.52
2023-09-03T04:29:57.595Z,15.62
2023-09-03T04:30:55.460Z,15.63
2023-09-03T04:31:52.117Z,15.62
2023-09-03T04:32:48.762Z,15.69
2023-09-03T04:33:45.520Z,15.64
2023-09-03T04:34:42.170Z,15.63
2023-09-03T04:35:39.639Z,15.64
2023-09-03T04:36:36.406Z,15.71
2023-09-03T04:37:34.175Z,15.71
2023-09-03T04:38:31.375Z,15.67
2023-09-03T04:39:28.061Z,15.71
2023-09-03T04:40:25.395Z,15.77
2023-09-03T04:41:22.033Z,15.83
2023-09-03T04:42:18.726Z,15.86
2023-09-03T04:43:15.670Z,15.88
2023-09-03T04:44:13.929Z,16.00
2023-09-03T04:45:10.912Z,16.05
2023-09-03T04:46:08.430Z,16.10
2023-09-03T04:47:06.719Z,16.14
2023-09-03T04:48:04.001Z,16.17
2023-09-03T04:49:00.867Z,16.23
2023-09-03T04:49:57.570Z,16.31
2023-09-03T04:50:54.463Z,16.35
2023-09-03T04:51:51.141Z,16.32
2023-09-03T04:52:49.673Z,16.33
2023-09-03T04:53:46.978Z,16.37
2023-09-03T04:54:45.071Z,16.35
2023-09-03T04:55:42.511Z,16.42
2023-09-03T04:56:39.276Z,16.50
2023-09-03T04:57:35.940Z,16.44
2023-09-03T04:58:33.460Z,16.58
2023-09-03T04:59:30.409Z,16.75
2023-09-03T05:00:28.357Z,16.75
2023-09-03T05:01:25.400Z,16.91
2023-09-03T05:02:22.375Z,16.95
2023-09-03T05:03:19.081Z,17.00
2023-09-03T05:04:19.118Z,17.05
2023-09-03T05:05:15.841Z,17.07
2023-09-03T05:06:14.931Z,17.25
2023-09-03T05:07:11.618Z,17.42
2023-09-03T05:08:09.781Z,17.51
2023-09-03T05:09:07.149Z,17.53
2023-09-03T05:10:04.152Z,17.66
2023-09-03T05:11:09.018Z,17.74
2023-09-03T05:12:06.849Z,17.84
2023-09-03T05:13:05.365Z,17.92
2023-09-03T05:14:02.055Z,17.95
2023-09-03T05:14:58.832Z,17.94
2023-09-03T05:15:55.469Z,17.96
2023-09-03T05:16:52.218Z,18.10
2023-09-03T05:17:48.981Z,18.18
2023-09-03T05:18:45.775Z,18.09
2023-09-03T05:19:42.659Z,18.15
2023-09-03T05:20:39.855Z,18.18
2023-09-03T05:21:36.523Z,17.97
2023-09-03T05:22:34.532Z,18.07
2023-09-03T05:23:31.192Z,18.31
2023-09-03T05:24:27.848Z,18.45
2023-09-03T05:25:24.506Z,18.51
2023-09-03T05:26:21.129Z,18.57
2023-09-03T05:27:17.874Z,18.44
2023-09-03T05:28:14.529Z,18.46
2023-09-03T05:29:11.185Z,18.56
2023-09-03T05:30:08.426Z,18.72
2023-09-03T05:31:05.077Z,18.66
2023-09-03T05:32:02.113Z,18.69
2023-09-03T05:32:58.944Z,18.68
2023-09-03T05:33:55.934Z,18.76
2023-09-03T05:34:52.694Z,18.72
2023-09-03T05:35:49.331Z,18.67
2023-09-03T05:36:46.124Z,18.46
2023-09-03T05:37:42.823Z,18.54
2023-09-03T05:38:43.811Z,18.81
2023-09-03T05:39:40.611Z,18.89
2023-09-03T05:40:37.344Z,18.93
2023-09-03T05:41:34.818Z,18.87
2023-09-03T05:42:31.457Z,18.99
2023-09-03T05:43:28.249Z,19.16
2023-09-03T05:44:25.538Z,18.82
2023-09-03T05:45:22.251Z,18.92
2023-09-03T05:46:18.963Z,18.98
2023-09-03T05:47:19.636Z,18.88
2023-09-03T05:48:16.700Z,18.92
2023-09-03T05:49:13.516Z,19.10
2023-09-03T05:50:10.397Z,19.30
2023-09-03T05:51:07.275Z,19.55
2023-09-03T05:52:04.327Z,19.75
2023-09-03T05:53:00.981Z,19.84
2023-09-03T05:53:57.824Z,19.96
2023-09-03T05:54:54.617Z,20.09
2023-09-03T05:55:51.492Z,20.00
2023-09-03T05:56:48.150Z,19.89
2023-09-03T05:57:44.951Z,19.88
2023-09-03T05:58:41.658Z,19.61
2023-09-03T05:59:38.410Z,19.53
2023-09-03T06:00:35.096Z,19.60
2023-09-03T06:01:31.973Z,19.82
2023-09-03T06:02:28.686Z,19.96
2023-09-03T06:03:25.438Z,20.11
2023-09-03T06:04:22.110Z,20.17
2023-09-03T06:05:18.868Z,20.39
2023-09-03T06:06:15.783Z,20.05
2023-09-03T06:07:12.543Z,19.86
2023-09-03T06:08:11.573Z,19.86
2023-09-03T06:09:10.866Z,19.56
2023-09-03T06:10:08.156Z,19.85
2023-09-03T06:11:06.903Z,19.85
2023-09-03T06:12:03.858Z,20.04
2023-09-03T06:13:00.456Z,20.29
2023-09-03T06:13:57.105Z,20.27
2023-09-03T06:14:53.826Z,20.22
2023-09-03T06:15:51.478Z,20.04
2023-09-03T06:16:48.141Z,19.82
2023-09-03T06:17:50.002Z,19.75
2023-09-03T06:18:46.896Z,20.08
2023-09-03T06:19:44.188Z,20.40
2023-09-03T06:20:40.841Z,20.73
2023-09-03T06:21:37.538Z,20.49
2023-09-03T06:22:34.155Z,20.28
2023-09-03T06:23:30.923Z,20.41
2023-09-03T06:24:30.677Z,20.85
2023-09-03T06:25:28.071Z,20.75
2023-09-03T06:26:24.762Z,20.94
2023-09-03T06:27:21.404Z,20.54
2023-09-03T06:28:18.537Z,20.69
2023-09-03T06:29:15.139Z,20.39
2023-09-03T06:30:12.259Z,20.17
2023-09-03T06:31:10.604Z,20.27
2023-09-03T06:32:09.207Z,20.81
2023-09-03T06:33:06.224Z,21.03
2023-09-03T06:34:02.962Z,21.37
2023-09-03T06:34:59.649Z,21.35
2023-09-03T06:35:57.631Z,21.55
2023-09-03T06:36:54.363Z,21.29
2023-09-03T06:37:51.022Z,21.20
2023-09-03T06:38:47.755Z,20.48
2023-09-03T06:39:44.512Z,20.63
2023-09-03T06:40:41.197Z,20.76
2023-09-03T06:41:38.287Z,20.97
2023-09-03T06:42:34.974Z,21.22
2023-09-03T06:43:31.712Z,21.19
2023-09-03T06:44:28.363Z,21.23
2023-09-03T06:45:25.312Z,21.45
2023-09-03T06:46:22.313Z,21.35
2023-09-03T06:47:19.062Z,21.24
2023-09-03T06:48:15.801Z,21.23
2023-09-03T06:49:12.399Z,21.20
2023-09-03T06:50:10.009Z,21.70
2023-09-03T06:51:06.868Z,21.74
2023-09-03T06:52:03.652Z,21.84
2023-09-03T06:53:00.289Z,21.71
2023-09-03T06:53:57.653Z,21.67
2023-09-03T06:54:54.460Z,21.78
2023-09-03T06:55:52.126Z,22.02
2023-09-03T06:56:48.784Z,22.09
2023-09-03T06:57:45.419Z,21.97
2023-09-03T06:58:42.199Z,21.44
2023-09-03T06:59:38.938Z,21.27
2023-09-03T07:00:35.983Z,21.72
2023-09-03T07:01:33.353Z,21.74
2023-09-03T07:02:30.157Z,21.72
2023-09-03T07:03:27.797Z,21.94
2023-09-03T07:04:24.523Z,22.29
2023-09-03T07:05:21.158Z,22.39
2023-09-03T07:06:17.827Z,22.36
2023-09-03T07:07:14.463Z,21.61
2023-09-03T07:08:11.176Z,21.44
2023-09-03T07:09:07.854Z,21.50
2023-09-03T07:10:04.842Z,21.79
2023-09-03T07:11:01.714Z,22.27
2023-09-03T07:11:58.456Z,22.40
2023-09-03T07:12:56.397Z,22.33
2023-09-03T07:13:53.017Z,22.30
2023-09-03T07:14:49.736Z,21.98
2023-09-03T07:15:46.397Z,21.72
2023-09-03T07:16:43.097Z,22.28
2023-09-03T07:17:39.864Z,22.51
2023-09-03T07:18:36.553Z,22.53
2023-09-03T07:19:33.266Z,22.87
2023-09-03T07:20:29.962Z,23.23
2023-09-03T07:21:26.662Z,22.93
2023-09-03T07:22:23.348Z,22.39
2023-09-03T07:23:20.233Z,21.82
2023-09-03T07:24:17.320Z,22.42
2023-09-03T07:25:14.004Z,22.61
2023-09-03T07:26:10.871Z,22.77
2023-09-03T07:27:07.579Z,22.64
2023-09-03T07:28:04.453Z,22.85
2023-09-03T07:29:01.150Z,23.21
2023-09-03T07:29:57.938Z,23.07
2023-09-03T07:30:54.605Z,23.44
2023-09-03T07:31:51.304Z,23.34
2023-09-03T07:32:47.955Z,23.68
2023-09-03T07:33:46.173Z,23.79
2023-09-03T07:34:44.609Z,23.92
2023-09-03T07:35:41.573Z,23.95
2023-09-03T07:36:38.818Z,23.96
2023-09-03T07:37:35.915Z,23.99
2023-09-03T07:38:32.729Z,23.50
2023-09-03T07:39:29.380Z,23.84
2023-09-03T07:40:26.063Z,24.06
2023-09-03T07:41:22.731Z,23.73
2023-09-03T07:42:19.444Z,24.05
2023-09-03T07:43:16.149Z,24.04
2023-09-03T07:44:12.835Z,23.90
2023-09-03T07:45:11.289Z,24.06
2023-09-03T07:46:08.054Z,24.13
2023-09-03T07:47:04.985Z,23.80
2023-09-03T07:48:01.720Z,23.92
2023-09-03T07:48:58.406Z,23.88
2023-09-03T07:49:55.305Z,23.55
2023-09-03T07:50:53.186Z,23.45
2023-09-03T07:51:49.896Z,24.03
2023-09-03T07:52:46.759Z,23.85
2023-09-03T07:53:43.480Z,23.72
2023-09-03T07:54:40.964Z,24.00
2023-09-03T07:55:37.676Z,23.87
2023-09-03T07:56:34.403Z,24.01
2023-09-03T07:57:33.486Z,24.49
2023-09-03T07:58:30.206Z,24.36
2023-09-03T07:59:26.831Z,24.38
2023-09-03T08:00:23.511Z,24.56
2023-09-03T08:01:20.845Z,24.86
2023-09-03T08:02:17.557Z,24.91
2023-09-03T08:03:14.422Z,24.81
2023-09-03T08:04:11.140Z,24.84
2023-09-03T08:05:12.289Z,24.74
2023-09-03T08:06:09.577Z,24.75
2023-09-03T08:07:06.194Z,23.67
2023-09-03T08:08:03.553Z,24.07
2023-09-03T08:09:01.689Z,24.27
2023-09-03T08:09:58.345Z,24.31
2023-09-03T08:10:56.202Z,24.25
2023-09-03T08:11:52.929Z,24.31
2023-09-03T08:12:51.742Z,24.31
2023-09-03T08:13:57.638Z,24.91
2023-09-03T08:14:56.491Z,24.92
2023-09-03T08:15:54.825Z,24.97
2023-09-03T08:16:51.485Z,24.63
2023-09-03T08:17:48.166Z,25.05
2023-09-03T08:18:44.867Z,24.85
2023-09-03T08:19:41.788Z,25.34
2023-09-03T08:20:38.437Z,25.54
2023-09-03T08:21:35.119Z,25.13
2023-09-03T08:22:31.737Z,25.54
2023-09-03T08:23:29.356Z,25.53
2023-09-03T08:24:30.202Z,25.18
2023-09-03T08:25:29.159Z,25.15
2023-09-03T08:26:25.851Z,25.39
2023-09-03T08:27:22.515Z,25.63
2023-09-03T08:28:19.161Z,25.99
2023-09-03T08:29:15.813Z,25.79
2023-09-03T08:30:12.867Z,25.54
2023-09-03T08:31:09.582Z,25.65
2023-09-03T08:32:06.822Z,25.61
2023-09-03T08:33:03.796Z,25.66
2023-09-03T08:34:00.435Z,25.93
2023-09-03T08:34:57.353Z,25.44
2023-09-03T08:35:54.095Z,25.56
2023-09-03T08:36:50.742Z,25.57
2023-09-03T08:37:47.522Z,25.44
2023-09-03T08:38:44.253Z,25.44
2023-09-03T08:39:40.916Z,25.80
2023-09-03T08:40:37.850Z,26.27
2023-09-03T08:41:38.434Z,26.27
2023-09-03T08:42:36.879Z,25.48
2023-09-03T08:43:33.847Z,25.59
2023-09-03T08:44:50.582Z,26.03
2023-09-03T08:45:54.564Z,26.18
2023-09-03T08:46:53.357Z,26.19
2023-09-03T08:47:50.326Z,26.24
2023-09-03T08:48:50.671Z,26.49
2023-09-03T08:49:48.450Z,26.16
2023-09-03T08:50:45.706Z,26.26
2023-09-03T08:51:42.499Z,26.68
2023-09-03T08:52:41.021Z,26.86
2023-09-03T08:53:39.289Z,27.10
2023-09-03T08:54:36.533Z,27.30
2023-09-03T08:55:34.624Z,26.35
2023-09-03T08:56:31.548Z,26.55
2023-09-03T08:57:31.713Z,26.63
2023-09-03T08:58:28.295Z,26.23
2023-09-03T08:59:25.195Z,26.49
2023-09-03T09:00:22.284Z,26.03
2023-09-03T09:01:19.775Z,26.38
2023-09-03T09:02:18.631Z,26.39
2023-09-03T09:03:17.964Z,26.94
2023-09-03T09:04:15.025Z,26.95
2023-09-03T09:05:12.803Z,27.06
2023-09-03T09:06:09.441Z,26.70
2023-09-03T09:07:07.542Z,26.59
2023-09-03T09:08:06.021Z,26.75
2023-09-03T09:09:04.247Z,27.13
2023-09-03T09:10:07.670Z,27.29
2023-09-03T09:11:08.709Z,27.03
2023-09-03T09:12:18.705Z,26.61
2023-09-03T09:13:22.960Z,26.93
2023-09-03T09:14:36.380Z,27.63
2023-09-03T09:15:34.942Z,27.16
2023-09-03T09:16:31.609Z,26.95
2023-09-03T09:17:29.860Z,27.22
2023-09-03T09:18:26.516Z,27.47
2023-09-03T09:19:23.179Z,26.93
2023-09-03T09:20:20.699Z,26.63
2023-09-03T09:21:19.688Z,27.14
2023-09-03T09:22:18.477Z,27.60
2023-09-03T09:23:23.159Z,27.34
2023-09-03T09:24:20.362Z,27.33
2023-09-03T09:25:24.873Z,27.57
2023-09-03T09:26:23.591Z,27.29
2023-09-03T09:27:21.123Z,27.37
2023-09-03T09:28:17.750Z,26.92
2023-09-03T09:29:14.344Z,27.32
2023-09-03T09:30:12.265Z,28.00
2023-09-03T09:31:12.269Z,28.31
2023-09-03T09:32:22.985Z,28.39
2023-09-03T09:33:19.935Z,28.58
2023-09-03T09:34:19.202Z,27.96
2023-09-03T09:35:25.733Z,28.51
2023-09-03T09:36:22.443Z,28.23
2023-09-03T09:37:19.200Z,27.98
2023-09-03T09:38:17.357Z,27.58
2023-09-03T09:39:14.165Z,28.00
2023-09-03T09:40:13.832Z,28.24
2023-09-03T09:41:27.757Z,27.36
2023-09-03T09:42:24.733Z,27.60
2023-09-03T09:43:21.707Z,27.31
2023-09-03T09:44:19.692Z,27.52
2023-09-03T09:45:16.432Z,28.14
2023-09-03T09:46:26.706Z,28.67
2023-09-03T09:47:24.013Z,28.62
2023-09-03T09:48:20.709Z,28.22
2023-09-03T09:49:17.426Z,28.93
2023-09-03T09:50:14.037Z,28.82
2023-09-03T09:51:10.702Z,28.87
2023-09-03T09:52:07.316Z,29.02
2023-09-03T09:53:05.139Z,28.32
2023-09-03T09:54:03.584Z,27.92
2023-09-03T09:55:00.288Z,27.96
2023-09-03T09:56:04.243Z,27.67
2023-09-03T09:57:10.483Z,27.70
2023-09-03T09:58:08.718Z,27.12
2023-09-03T09:59:10.999Z,27.30
2023-09-03T10:00:09.294Z,26.89
2023-09-03T10:01:06.949Z,26.16
2023-09-03T10:02:17.501Z,26.57
2023-09-03T10:03:16.378Z,27.19
2023-09-03T10:04:13.386Z,26.44
2023-09-03T10:05:11.668Z,26.65
2023-09-03T10:06:11.567Z,27.08
2023-09-03T10:07:09.114Z,26.78
2023-09-03T10:08:07.078Z,26.79
2023-09-03T10:09:04.737Z,27.49
2023-09-03T10:10:02.297Z,28.18
2023-09-03T10:10:58.954Z,27.18
2023-09-03T10:11:55.593Z,27.80
2023-09-03T10:12:52.304Z,28.40
2023-09-03T10:13:49.892Z,28.73
2023-09-03T10:14:46.583Z,28.58
2023-09-03T10:15:43.435Z,29.10
2023-09-03T10:16:40.310Z,28.31
2023-09-03T10:17:39.547Z,27.63
2023-09-03T10:18:44.711Z,28.58
2023-09-03T10:19:54.872Z,29.50
2023-09-03T10:20:52.355Z,28.83
2023-09-03T10:21:53.945Z,28.33
2023-09-03T10:22:53.359Z,28.29
2023-09-03T10:23:51.707Z,28.39
2023-09-03T10:25:01.590Z,29.12
2023-09-03T10:26:05.602Z,28.81
2023-09-03T10:27:10.573Z,28.93
2023-09-03T10:28:08.671Z,28.80
2023-09-03T10:29:11.238Z,28.58
2023-09-03T10:30:12.303Z,27.87
2023-09-03T10:31:11.971Z,27.76
2023-09-03T10:32:11.861Z,27.64
2023-09-03T10:33:10.488Z,27.07
2023-09-03T10:34:11.757Z,27.59
2023-09-03T10:35:12.359Z,27.50
2023-09-03T10:36:19.624Z,27.59
2023-09-03T10:37:16.328Z,27.49
2023-09-03T10:38:30.906Z,26.62
2023-09-03T10:39:27.554Z,26.60
2023-09-03T10:40:25.979Z,26.37
2023-09-03T10:41:26.275Z,26.49
2023-09-03T10:42:27.429Z,26.36
2023-09-03T10:43:26.814Z,26.21
2023-09-03T10:44:32.825Z,25.70
2023-09-03T10:45:29.525Z,25.69
2023-09-03T10:46:28.953Z,25.82
2023-09-03T10:47:25.804Z,25.66
2023-09-03T10:48:22.576Z,25.72
2023-09-03T10:49:19.323Z,25.79
2023-09-03T10:50:49.731Z,25.83
2023-09-03T10:51:46.454Z,25.49
2023-09-03T10:52:43.218Z,25.83
2023-09-03T10:53:41.804Z,25.85
2023-09-03T10:54:39.160Z,25.62
2023-09-03T10:55:36.124Z,26.10
2023-09-03T10:56:32.829Z,26.88
2023-09-03T10:57:31.467Z,26.96
2023-09-03T10:58:31.959Z,26.30
2023-09-03T11:00:02.737Z,27.25
2023-09-03T11:01:27.507Z,27.14
2023-09-03T11:02:26.477Z,26.92
2023-09-03T11:03:24.896Z,27.71
2023-09-03T11:04:21.971Z,28.01
2023-09-03T11:05:22.198Z,27.89
2023-09-03T11:06:29.418Z,27.97
2023-09-03T11:07:26.090Z,28.23
2023-09-03T11:08:31.740Z,26.98
2023-09-03T11:09:28.592Z,27.46
2023-09-03T11:10:26.123Z,27.47
2023-09-03T11:11:22.950Z,28.31
2023-09-03T11:12:19.703Z,28.58
2023-09-03T11:13:26.980Z,28.69
2023-09-03T11:14:33.351Z,28.38
2023-09-03T11:15:30.101Z,28.11
2023-09-03T11:16:38.052Z,29.00
2023-09-03T11:17:34.763Z,29.72
2023-09-03T11:18:32.288Z,29.97
2023-09-03T11:19:40.785Z,30.16
2023-09-03T11:21:39.849Z,30.04
2023-09-03T11:22:38.494Z,29.80
2023-09-03T11:23:36.983Z,29.84
2023-09-03T11:24:45.987Z,29.73
2023-09-03T11:25:43.101Z,29.83
2023-09-03T11:26:40.070Z,30.04
2023-09-03T11:27:49.118Z,30.02
2023-09-03T11:28:47.314Z,30.24
2023-09-03T11:29:43.991Z,30.60
2023-09-03T11:30:47.081Z,30.73
2023-09-03T11:31:49.211Z,30.00
2023-09-03T11:32:45.810Z,29.35
2023-09-03T11:33:42.475Z,29.22
2023-09-03T11:34:39.153Z,28.85
2023-09-03T11:35:44.798Z,28.81
2023-09-03T11:36:41.471Z,28.28
2023-09-03T11:37:39.198Z,28.31
2023-09-03T11:38:36.091Z,28.07
2023-09-03T11:39:33.257Z,27.88
2023-09-03T11:40:30.071Z,27.39
2023-09-03T11:41:26.876Z,27.71
2023-09-03T11:42:23.805Z,27.63
2023-09-03T11:43:20.750Z,28.14
2023-09-03T11:44:21.082Z,27.89
2023-09-03T11:45:18.108Z,27.71
2023-09-03T11:46:16.683Z,27.85
2023-09-03T11:47:13.515Z,27.94
2023-09-03T11:48:13.561Z,27.10
2023-09-03T11:49:10.319Z,26.77
2023-09-03T11:50:17.059Z,26.48
2023-09-03T11:51:24.423Z,26.48
2023-09-03T11:52:23.324Z,26.50
2023-09-03T11:53:20.838Z,26.47
2023-09-03T11:54:27.260Z,26.21
2023-09-03T11:55:28.641Z,25.99
2023-09-03T11:56:28.890Z,26.08
2023-09-03T11:57:26.047Z,26.02
2023-09-03T11:58:27.403Z,26.27
2023-09-03T11:59:24.336Z,26.37
2023-09-03T12:00:21.630Z,25.90
2023-09-03T12:01:19.084Z,25.84
2023-09-03T12:02:16.584Z,26.02
2023-09-03T12:03:14.604Z,25.88
2023-09-03T12:04:11.767Z,25.90
2023-09-03T12:05:09.240Z,26.03
2023-09-03T12:06:06.075Z,26.03
2023-09-03T12:07:02.826Z,26.33
2023-09-03T12:08:04.077Z,26.53
2023-09-03T12:09:00.722Z,26.50
2023-09-03T12:09:57.432Z,26.66
2023-09-03T12:10:54.175Z,26.63
2023-09-03T12:11:51.331Z,26.65
2023-09-03T12:12:48.031Z,26.58
2023-09-03T12:13:45.677Z,26.44
2023-09-03T12:14:42.497Z,26.42
2023-09-03T12:15:39.288Z,27.17
2023-09-03T12:16:48.781Z,28.09
2023-09-03T12:17:45.609Z,28.21
2023-09-03T12:18:56.938Z,27.97
2023-09-03T12:19:53.914Z,28.67
2023-09-03T12:20:52.754Z,29.07
2023-09-03T12:21:53.522Z,28.30
2023-09-03T12:22:50.273Z,28.78
2023-09-03T12:23:47.174Z,29.05
2023-09-03T12:24:47.465Z,29.61
2023-09-03T12:25:44.365Z,29.66
2023-09-03T12:26:41.069Z,29.60
2023-09-03T12:27:50.669Z,28.70
2023-09-03T12:28:47.329Z,28.33
2023-09-03T12:29:52.230Z,28.64
2023-09-03T12:31:01.248Z,29.02
2023-09-03T12:31:57.991Z,29.01
2023-09-03T12:32:55.408Z,29.30
2023-09-03T12:33:52.573Z,27.61
2023-09-03T12:34:52.388Z,27.78
2023-09-03T12:36:05.719Z,27.61
2023-09-03T12:37:03.986Z,27.83